createdAt,value
2019-04-20T00:00:09.082Z,19.53
2019-04-20T00:02:35.767Z,20.50
2019-04-20T00:05:03.785Z,21.67
2019-04-20T00:07:35.628Z,19.90
2019-04-20T00:10:08.765Z,20.77
2019-04-20T00:12:46.064Z,20.07
2019-04-20T00:15:00.608Z,17.43
2019-04-20T00:17:28.791Z,19.77
2019-04-20T00:19:57.830Z,18.03
2019-04-20T00:22:40.913Z,19.83
2019-04-20T00:25:15.497Z,18.30
2019-04-20T00:28:17.648Z,21.47
2019-04-20T00:30:48.161Z,15.23
2019-04-20T00:33:07.313Z,17.27
2019-04-20T00:35:27.158Z,18.60
2019-04-20T00:37:55.009Z,19.70
2019-04-20T00:40:23.675Z,18.93
2019-04-20T00:42:54.896Z,19.23
2019-04-20T00:45:25.862Z,16.77
2019-04-20T00:47:59.586Z,15.47
2019-04-20T00:50:35.827Z,19.07
2019-04-20T00:53:05.791Z,23.77
2019-04-20T00:55:19.078Z,18.23
2019-04-20T00:57:54.676Z,17.10
2019-04-20T01:00:31.588Z,16.13
2019-04-20T01:03:00.987Z,18.60
2019-04-20T01:05:39.396Z,19.27
2019-04-20T01:08:04.527Z,17.67
2019-04-20T01:10:37.090Z,16.87
2019-04-20T01:13:06.747Z,17.83
2019-04-20T01:15:38.652Z,20.27
2019-04-20T01:17:58.340Z,17.83
2019-04-20T01:20:27.821Z,16.97
2019-04-20T01:23:03.294Z,20.30
2019-04-20T01:25:30.850Z,18.13
2019-04-20T01:28:09.085Z,18.23
2019-04-20T01:30:30.162Z,18.00
2019-04-20T01:33:08.898Z,18.53
2019-04-20T01:35:39.522Z,17.57
2019-04-20T01:38:12.411Z,14.50
2019-04-20T01:40:21.230Z,14.63
2019-04-20T01:42:49.086Z,15.73
2019-04-20T01:45:23.561Z,15.90
2019-04-20T01:47:50.824Z,15.67
2019-04-20T01:50:21.255Z,17.07
2019-04-20T01:52:56.923Z,19.43
2019-04-20T01:55:35.827Z,16.03
2019-04-20T01:58:05.067Z,17.83
2019-04-20T02:00:34.929Z,14.97
2019-04-20T02:03:05.545Z,15.43
2019-04-20T02:05:35.877Z,16.03
2019-04-20T02:08:08.722Z,15.33
2019-04-20T02:10:41.083Z,15.53
2019-04-20T02:13:03.393Z,14.07
2019-04-20T02:15:38.563Z,15.57
2019-04-20T02:18:14.912Z,17.67
2019-04-20T02:20:50.283Z,15.70
2019-04-20T02:23:10.550Z,17.00
2019-04-20T02:25:29.071Z,14.53
2019-04-20T02:28:14.778Z,18.23
2019-04-20T02:33:34.789Z,18.23
2019-04-20T02:36:25.040Z,15.13
2019-04-20T02:41:49.734Z,17.70
2019-04-20T02:44:27.118Z,18.63
2019-04-20T02:46:33.680Z,19.00
2019-04-20T02:49:10.643Z,16.10
2019-04-20T02:51:33.052Z,15.37
2019-04-20T02:54:11.068Z,23.97
2019-04-20T02:56:39.874Z,16.67
2019-04-20T03:01:17.607Z,15.63
2019-04-20T03:03:34.524Z,18.37
2019-04-20T03:06:10.234Z,19.20
2019-04-20T03:08:47.955Z,14.37
2019-04-20T03:11:23.462Z,16.77
2019-04-20T03:13:41.737Z,16.10
2019-04-20T03:16:12.417Z,14.57
2019-04-20T03:18:41.347Z,16.57
2019-04-20T03:21:12.729Z,20.90
2019-04-20T03:23:57.279Z,13.97
2019-04-20T03:26:17.600Z,17.40
2019-04-20T03:28:51.464Z,18.97
2019-04-20T03:31:46.447Z,15.97
2019-04-20T03:34:23.182Z,19.17
2019-04-20T03:36:46.931Z,13.70
2019-04-20T03:38:53.857Z,17.60
2019-04-20T03:41:16.568Z,14.40
2019-04-20T03:43:32.865Z,12.60
2019-04-20T03:46:07.376Z,17.97
2019-04-20T03:48:46.853Z,19.23
2019-04-20T03:51:23.617Z,15.67
2019-04-20T03:54:04.689Z,15.97
2019-04-20T03:56:47.979Z,12.67
2019-04-20T03:59:33.245Z,13.47
2019-04-20T04:02:22.249Z,15.77
2019-04-20T04:04:54.499Z,16.97
2019-04-20T04:07:15.338Z,15.00
2019-04-20T04:09:46.704Z,19.93
2019-04-20T04:12:16.875Z,14.13
2019-04-20T04:14:34.529Z,17.77
2019-04-20T04:17:04.212Z,15.20
2019-04-20T04:19:36.578Z,13.70
2019-04-20T04:22:15.120Z,17.93
2019-04-20T04:24:40.977Z,14.17
2019-04-20T04:27:15.035Z,20.47
2019-04-20T04:29:48.603Z,15.40
2019-04-20T04:32:35.059Z,28.50
2019-04-20T04:34:43.318Z,17.47
2019-04-20T04:37:17.987Z,14.73
2019-04-20T04:39:49.068Z,14.97
2019-04-20T04:42:39.235Z,20.00
2019-04-20T04:44:37.487Z,14.37
2019-04-20T04:47:00.225Z,15.70
2019-04-20T04:49:31.138Z,14.37
2019-04-20T04:52:02.284Z,14.27
2019-04-20T04:54:33.825Z,16.40
2019-04-20T04:56:52.649Z,20.33
2019-04-20T04:59:21.399Z,14.60
2019-04-20T05:01:53.115Z,13.73
2019-04-20T05:04:41.512Z,14.20
2019-04-20T05:07:05.134Z,13.03
2019-04-20T05:09:20.453Z,14.77
2019-04-20T05:11:55.868Z,16.97
2019-04-20T05:14:24.516Z,14.03
2019-04-20T05:17:04.189Z,14.30
2019-04-20T05:19:36.812Z,15.73
2019-04-20T05:22:13.790Z,14.57
2019-04-20T05:24:48.214Z,14.33
2019-04-20T05:27:24.906Z,13.73
2019-04-20T05:29:38.153Z,13.53
2019-04-20T05:32:11.182Z,14.97
2019-04-20T05:34:58.206Z,14.97
2019-04-20T05:37:37.165Z,12.73
2019-04-20T05:39:59.011Z,14.40
2019-04-20T05:42:29.999Z,12.97
2019-04-20T05:44:55.953Z,16.23
2019-04-20T05:47:24.074Z,15.40
2019-04-20T05:49:49.901Z,13.70
2019-04-20T05:52:35.034Z,13.37
2019-04-20T05:54:51.411Z,13.90
2019-04-20T05:57:25.143Z,16.60
2019-04-20T06:00:00.011Z,13.93
2019-04-20T06:02:25.061Z,14.40
2019-04-20T06:05:00.470Z,16.67
2019-04-20T06:07:21.180Z,13.57
2019-04-20T06:09:46.344Z,13.20
2019-04-20T06:15:00.351Z,14.63
2019-04-20T06:17:53.203Z,13.73
2019-04-20T06:20:27.218Z,11.20
2019-04-20T06:22:57.419Z,18.73
2019-04-20T06:27:56.880Z,12.57
2019-04-20T06:30:18.901Z,11.37
2019-04-20T06:33:06.851Z,14.47
2019-04-20T06:35:46.581Z,13.20
2019-04-20T06:38:00.767Z,12.40
2019-04-20T06:40:42.275Z,14.43
2019-04-20T06:42:58.852Z,17.60
2019-04-20T06:45:28.189Z,14.80
2019-04-20T06:47:54.597Z,9.27
2019-04-20T06:50:18.203Z,11.97
2019-04-20T06:52:55.650Z,12.20
2019-04-20T06:55:19.794Z,12.67
2019-04-20T06:57:57.274Z,15.27
2019-04-20T07:00:18.152Z,9.77
2019-04-20T07:02:53.897Z,12.43
2019-04-20T07:07:53.376Z,13.17
2019-04-20T07:10:37.388Z,11.17
2019-04-20T07:12:46.638Z,13.37
2019-04-20T07:15:19.851Z,11.47
2019-04-20T07:18:02.357Z,13.57
2019-04-20T07:20:27.851Z,11.60
2019-04-20T07:23:11.562Z,14.37
2019-04-20T07:25:34.144Z,11.13
2019-04-20T07:27:58.254Z,10.73
2019-04-20T07:30:30.326Z,11.90
2019-04-20T07:33:04.545Z,11.43
2019-04-20T07:35:26.306Z,10.90
2019-04-20T07:40:24.481Z,12.13
2019-04-20T07:42:56.479Z,11.63
2019-04-20T07:47:52.733Z,11.87
2019-04-20T07:50:18.883Z,9.13
2019-04-20T07:52:43.863Z,12.93
2019-04-20T07:57:46.914Z,9.93
2019-04-20T08:00:26.249Z,10.27
2019-04-20T08:02:57.362Z,10.97
2019-04-20T08:05:30.493Z,12.07
2019-04-20T08:07:53.850Z,12.57
2019-04-20T08:10:30.680Z,12.13
2019-04-20T08:13:09.515Z,10.30
2019-04-20T08:15:46.186Z,10.77
2019-04-20T08:18:01.259Z,10.90
2019-04-20T08:20:35.515Z,10.17
2019-04-20T08:23:06.408Z,11.93
2019-04-20T08:25:23.524Z,11.77
2019-04-20T08:27:46.599Z,10.23
2019-04-20T08:30:33.878Z,11.90
2019-04-20T08:33:09.541Z,10.23
2019-04-20T08:35:47.710Z,11.23
2019-04-20T08:38:37.278Z,13.23
2019-04-20T08:40:43.717Z,10.00
2019-04-20T08:43:20.116Z,12.37
2019-04-20T08:45:42.041Z,11.00
2019-04-20T08:48:17.412Z,10.97
2019-04-20T08:50:37.414Z,13.37
2019-04-20T08:53:20.491Z,13.78
2019-04-20T08:55:33.537Z,8.90
2019-04-20T08:57:49.269Z,11.80
2019-04-20T09:00:28.861Z,10.60
2019-04-20T09:02:51.681Z,10.30
2019-04-20T09:05:30.269Z,9.87
2019-04-20T09:07:57.761Z,9.63
2019-04-20T09:10:39.439Z,11.83
2019-04-20T09:13:01.526Z,11.67
2019-04-20T09:15:14.774Z,12.17
2019-04-20T09:17:54.805Z,9.68
2019-04-20T09:20:33.065Z,10.63
2019-04-20T09:23:07.055Z,10.38
2019-04-20T09:28:09.483Z,10.40
2019-04-20T09:30:37.062Z,10.68
2019-04-20T09:33:16.820Z,11.87
2019-04-20T09:35:44.044Z,10.83
2019-04-20T09:38:14.417Z,10.30
2019-04-20T09:40:48.267Z,12.40
2019-04-20T09:43:06.659Z,9.38
2019-04-20T09:45:49.003Z,14.17
2019-04-20T09:48:21.223Z,13.97
2019-04-20T09:51:05.013Z,14.20
2019-04-20T09:53:24.730Z,9.73
2019-04-20T09:56:04.713Z,10.75
2019-04-20T09:58:24.030Z,8.28
2019-04-20T10:00:56.805Z,8.95
2019-04-20T10:03:10.908Z,13.43
2019-04-20T10:05:38.566Z,7.40
2019-04-20T10:08:09.549Z,10.30
2019-04-20T10:10:40.577Z,9.23
2019-04-20T10:13:05.995Z,8.63
2019-04-20T10:15:35.390Z,8.33
2019-04-20T10:18:03.748Z,11.20
2019-04-20T10:20:34.753Z,10.43
2019-04-20T10:23:00.912Z,13.00
2019-04-20T10:25:28.772Z,9.80
2019-04-20T10:27:57.589Z,9.70
2019-04-20T10:30:26.307Z,9.33
2019-04-20T10:32:55.722Z,9.05
2019-04-20T10:35:23.544Z,10.58
2019-04-20T10:37:55.730Z,9.33
2019-04-20T10:40:37.799Z,12.00
2019-04-20T10:42:53.154Z,9.00
2019-04-20T10:45:21.280Z,8.63
2019-04-20T10:47:49.082Z,11.50
2019-04-20T10:50:16.899Z,14.73
2019-04-20T10:52:45.810Z,10.18
2019-04-20T10:55:14.729Z,8.73
2019-04-20T10:57:43.812Z,9.90
2019-04-20T11:00:13.422Z,11.25
2019-04-20T11:02:43.959Z,9.48
2019-04-20T11:05:10.837Z,8.85
2019-04-20T11:07:38.832Z,9.40
2019-04-20T11:10:14.729Z,8.08
2019-04-20T11:12:35.941Z,9.67
2019-04-20T11:15:03.637Z,9.73
2019-04-20T11:17:31.813Z,7.37
2019-04-20T11:20:01.197Z,9.55
2019-04-20T11:22:30.291Z,11.33
2019-04-20T11:24:58.569Z,13.28
2019-04-20T11:27:26.416Z,8.97
2019-04-20T11:29:54.138Z,9.23
2019-04-20T11:32:22.204Z,10.68
2019-04-20T11:34:51.175Z,9.50
2019-04-20T11:37:19.357Z,10.05
2019-04-20T11:39:47.350Z,9.10
2019-04-20T11:42:15.204Z,8.33
2019-04-20T11:44:42.865Z,12.17
2019-04-20T11:47:10.717Z,10.40
2019-04-20T11:49:39.657Z,8.00
2019-04-20T11:52:07.775Z,9.15
2019-04-20T11:54:36.610Z,11.18
2019-04-20T11:57:04.600Z,11.57
2019-04-20T11:59:32.775Z,8.85
2019-04-20T12:02:10.827Z,8.55
2019-04-20T12:04:49.967Z,8.58
2019-04-20T12:07:12.922Z,9.28
2019-04-20T12:09:41.874Z,9.33
2019-04-20T12:12:23.484Z,8.80
2019-04-20T12:14:39.041Z,10.32
2019-04-20T12:17:07.939Z,8.60
2019-04-20T12:19:36.282Z,9.23
2019-04-20T12:22:05.655Z,7.35
2019-04-20T12:24:33.434Z,6.95
2019-04-20T12:27:01.126Z,9.78
2019-04-20T12:29:29.937Z,7.47
2019-04-20T12:32:01.282Z,9.25
2019-04-20T12:34:28.573Z,8.30
2019-04-20T12:36:58.282Z,13.13
2019-04-20T12:39:26.981Z,10.43
2019-04-20T12:41:58.836Z,9.27
2019-04-20T12:44:24.147Z,7.37
2019-04-20T12:46:52.088Z,9.70
2019-04-20T12:49:19.951Z,14.45
2019-04-20T12:51:53.742Z,8.05
2019-04-20T12:54:18.499Z,8.57
2019-04-20T12:56:46.607Z,8.85
2019-04-20T12:59:15.714Z,12.80
2019-04-20T13:01:43.793Z,17.02
2019-04-20T13:04:12.139Z,8.70
2019-04-20T13:06:40.878Z,8.13
2019-04-20T13:09:10.656Z,6.60
2019-04-20T13:11:50.384Z,8.75
2019-04-20T13:14:26.247Z,7.67
2019-04-20T13:16:55.144Z,8.60
2019-04-20T13:19:23.536Z,8.40
2019-04-20T13:21:52.668Z,6.75
2019-04-20T13:24:20.929Z,7.83
2019-04-20T13:26:49.100Z,5.33
2019-04-20T13:29:17.123Z,9.20
2019-04-20T13:31:44.931Z,6.83
2019-04-20T13:34:13.282Z,7.83
2019-04-20T13:36:42.098Z,6.30
2019-04-20T13:39:10.232Z,6.07
2019-04-20T13:41:38.186Z,6.92
2019-04-20T13:44:06.573Z,6.00
2019-04-20T13:46:34.362Z,10.03
2019-04-20T13:49:03.017Z,6.55
2019-04-20T13:51:31.003Z,8.68
2019-04-20T13:53:59.440Z,5.53
2019-04-20T13:56:28.004Z,5.45
2019-04-20T13:59:02.146Z,7.33
2019-04-20T14:01:51.609Z,8.08
2019-04-20T14:04:24.464Z,6.47
2019-04-20T14:06:53.357Z,6.65
2019-04-20T14:09:21.406Z,6.70
2019-04-20T14:11:49.451Z,6.42
2019-04-20T14:14:17.348Z,9.18
2019-04-20T14:16:45.419Z,6.78
2019-04-20T14:19:14.379Z,7.33
2019-04-20T14:21:42.189Z,7.27
2019-04-20T14:24:10.971Z,7.58
2019-04-20T14:26:40.748Z,8.08
2019-04-20T14:29:09.038Z,8.10
2019-04-20T14:31:37.598Z,6.25
2019-04-20T14:34:06.768Z,7.47
2019-04-20T14:36:34.914Z,7.03
2019-04-20T14:39:04.422Z,7.43
2019-04-20T14:41:32.411Z,6.60
2019-04-20T14:44:01.562Z,7.80
2019-04-20T14:46:29.546Z,6.95
2019-04-20T14:48:58.759Z,6.75
2019-04-20T14:51:27.761Z,9.43
2019-04-20T14:53:55.810Z,6.50
2019-04-20T14:56:23.582Z,8.50
2019-04-20T14:58:55.765Z,7.12
2019-04-20T15:01:42.833Z,6.92
2019-04-20T15:04:16.664Z,6.92
2019-04-20T15:06:40.103Z,11.57
2019-04-20T15:09:08.725Z,6.47
2019-04-20T15:11:39.869Z,7.83
2019-04-20T15:14:06.860Z,8.55
2019-04-20T15:16:34.837Z,7.55
2019-04-20T15:19:07.715Z,7.87
2019-04-20T15:21:35.702Z,6.10
2019-04-20T15:24:03.767Z,7.17
2019-04-20T15:26:31.506Z,7.10
2019-04-20T15:28:59.973Z,8.33
2019-04-20T15:31:28.190Z,9.00
2019-04-20T15:33:57.064Z,6.35
2019-04-20T15:36:24.802Z,6.70
2019-04-20T15:38:53.340Z,7.72
2019-04-20T15:41:21.317Z,6.87
2019-04-20T15:43:49.174Z,7.47
2019-04-20T15:46:17.215Z,6.73
2019-04-20T15:48:46.156Z,8.00
2019-04-20T15:51:14.167Z,7.42
2019-04-20T15:53:42.016Z,6.70
2019-04-20T15:56:11.672Z,7.45
2019-04-20T15:58:39.041Z,6.43
2019-04-20T16:01:08.294Z,6.30
2019-04-20T16:03:41.562Z,8.95
2019-04-20T16:06:11.354Z,7.33
2019-04-20T16:08:41.940Z,6.35
2019-04-20T16:11:11.220Z,6.83
2019-04-20T16:13:44.138Z,8.95
2019-04-20T16:16:09.966Z,10.20
2019-04-20T16:18:39.151Z,7.92
2019-04-20T16:21:13.303Z,6.60
2019-04-20T16:23:43.927Z,7.17
2019-04-20T16:26:17.709Z,8.37
2019-04-20T16:28:45.869Z,6.30
2019-04-20T16:31:15.415Z,6.75
2019-04-20T16:33:44.293Z,8.08
2019-04-20T16:36:12.374Z,9.18
2019-04-20T16:38:41.465Z,7.87
2019-04-20T16:41:10.434Z,8.65
2019-04-20T16:43:43.013Z,10.83
2019-04-20T16:46:08.749Z,8.80
2019-04-20T16:48:37.930Z,8.13
2019-04-20T16:51:06.925Z,9.08
2019-04-20T16:53:34.971Z,8.38
2019-04-20T16:56:02.876Z,9.18
2019-04-20T16:58:31.837Z,7.90
2019-04-20T17:00:59.501Z,10.60
2019-04-20T17:03:39.007Z,8.90
2019-04-20T17:05:56.529Z,8.13
2019-04-20T17:08:24.979Z,9.55
2019-04-20T17:10:53.674Z,7.90
2019-04-20T17:13:34.158Z,7.53
2019-04-20T17:15:51.969Z,6.00
2019-04-20T17:18:19.736Z,7.15
2019-04-20T17:20:48.373Z,7.43
2019-04-20T17:23:17.539Z,10.37
2019-04-20T17:25:46.021Z,10.45
2019-04-20T17:28:27.258Z,12.50
2019-04-20T17:31:03.703Z,7.97
2019-04-20T17:33:50.763Z,7.53
2019-04-20T17:36:15.658Z,7.67
2019-04-20T17:38:43.427Z,11.50
2019-04-20T17:41:22.477Z,8.35
2019-04-20T17:43:57.794Z,7.08
2019-04-20T17:46:17.359Z,8.63
2019-04-20T17:48:45.124Z,5.97
2019-04-20T17:51:24.001Z,7.40
2019-04-20T17:53:58.557Z,6.27
2019-04-20T17:56:24.459Z,6.70
2019-04-20T17:58:52.399Z,5.27
2019-04-20T18:01:47.826Z,12.75
2019-04-20T18:04:37.014Z,8.30
2019-04-20T18:06:47.841Z,6.90
2019-04-20T18:09:24.935Z,7.10
2019-04-20T18:11:40.307Z,5.67
2019-04-20T18:14:17.155Z,11.83
2019-04-20T18:16:51.069Z,9.53
2019-04-20T18:19:13.906Z,6.43
2019-04-20T18:21:43.415Z,6.28
2019-04-20T18:24:16.541Z,11.03
2019-04-20T18:26:59.163Z,9.23
2019-04-20T18:29:32.289Z,8.20
2019-04-20T18:31:45.334Z,9.97
2019-04-20T18:34:22.708Z,11.23
2019-04-20T18:36:49.450Z,9.68
2019-04-20T18:39:22.150Z,8.10
2019-04-20T18:41:52.161Z,11.10
2019-04-20T18:44:20.200Z,10.30
2019-04-20T18:47:09.525Z,9.28
2019-04-20T18:49:26.924Z,8.30
2019-04-20T18:51:44.288Z,8.93
2019-04-20T18:54:19.461Z,8.50
2019-04-20T18:56:45.940Z,7.67
2019-04-20T18:59:11.438Z,8.75
2019-04-20T19:01:42.006Z,6.22
2019-04-20T19:04:09.868Z,6.90
2019-04-20T19:06:38.104Z,6.80
2019-04-20T19:09:10.088Z,8.33
2019-04-20T19:11:43.746Z,12.25
2019-04-20T19:14:17.263Z,12.63
2019-04-20T19:16:59.765Z,10.17
2019-04-20T19:19:33.370Z,7.50
2019-04-20T19:21:54.152Z,11.33
2019-04-20T19:24:26.000Z,10.45
2019-04-20T19:26:56.121Z,7.83
2019-04-20T19:29:30.068Z,7.73
2019-04-20T19:32:15.820Z,12.67
2019-04-20T19:34:37.747Z,11.00
2019-04-20T19:37:02.223Z,13.28
2019-04-20T19:39:32.270Z,7.93
2019-04-20T19:41:55.514Z,9.08
2019-04-20T19:44:28.742Z,10.77
2019-04-20T19:47:09.119Z,11.00
2019-04-20T19:49:25.077Z,12.67
2019-04-20T19:52:20.215Z,11.97
2019-04-20T19:54:36.855Z,12.00
2019-04-20T19:56:58.707Z,10.07
2019-04-20T19:59:24.860Z,11.70
2019-04-20T20:01:42.837Z,10.47
2019-04-20T20:04:11.852Z,9.37
2019-04-20T20:06:47.172Z,9.83
2019-04-20T20:09:12.615Z,9.80
2019-04-20T20:11:42.314Z,12.93
2019-04-20T20:14:11.128Z,11.03
2019-04-20T20:16:56.502Z,12.93
2019-04-20T20:19:16.778Z,13.90
2019-04-20T20:21:54.296Z,11.60
2019-04-20T20:24:06.085Z,9.80
2019-04-20T20:26:40.712Z,11.13
2019-04-20T20:29:12.131Z,11.63
2019-04-20T20:31:48.459Z,11.67
2019-04-20T20:34:15.788Z,12.70
2019-04-20T20:36:43.652Z,14.43
2019-04-20T20:39:10.756Z,11.27
2019-04-20T20:41:47.799Z,12.17
2019-04-20T20:44:06.955Z,11.43
2019-04-20T20:46:36.521Z,14.13
2019-04-20T20:49:28.861Z,11.67
2019-04-20T20:51:52.803Z,9.93
2019-04-20T20:54:07.671Z,12.53
2019-04-20T20:56:30.878Z,12.30
2019-04-20T20:59:04.139Z,12.27
2019-04-20T21:01:37.795Z,11.50
2019-04-20T21:03:56.735Z,12.97
2019-04-20T21:06:24.554Z,14.50
2019-04-20T21:08:56.069Z,10.07
2019-04-20T21:11:27.138Z,12.77
2019-04-20T21:13:52.263Z,14.07
2019-04-20T21:16:25.700Z,14.67
2019-04-20T21:19:05.956Z,15.63
2019-04-20T21:21:34.919Z,12.73
2019-04-20T21:23:58.157Z,11.00
2019-04-20T21:26:27.085Z,12.57
2019-04-20T21:28:50.086Z,13.90
2019-04-20T21:31:22.377Z,12.47
2019-04-20T21:33:47.232Z,11.30
2019-04-20T21:36:21.187Z,12.97
2019-04-20T21:38:45.120Z,8.73
2019-04-20T21:41:16.217Z,8.30
2019-04-20T21:43:44.635Z,9.87
2019-04-20T21:46:13.866Z,11.57
2019-04-20T21:48:55.926Z,10.07
2019-04-20T21:51:27.444Z,13.03
2019-04-20T21:53:41.181Z,11.53
2019-04-20T21:56:10.211Z,10.57
2019-04-20T21:58:43.548Z,11.60
2019-04-20T22:01:20.116Z,12.83
2019-04-20T22:03:38.306Z,9.33
2019-04-20T22:06:06.769Z,12.90
2019-04-20T22:08:34.765Z,10.27
2019-04-20T22:11:03.860Z,9.30
2019-04-20T22:13:37.697Z,13.80
2019-04-20T22:16:05.433Z,9.33
2019-04-20T22:18:31.916Z,12.27
2019-04-20T22:21:11.182Z,12.00
2019-04-20T22:23:46.438Z,14.13
2019-04-20T22:26:16.331Z,15.57
2019-04-20T22:28:28.160Z,11.77
2019-04-20T22:30:55.863Z,14.00
2019-04-20T22:33:33.602Z,15.60
2019-04-20T22:36:02.181Z,10.90
2019-04-20T22:38:33.055Z,14.20
2019-04-20T22:41:07.772Z,13.37
2019-04-20T22:43:33.915Z,11.87
2019-04-20T22:45:59.648Z,14.10
2019-04-20T22:48:27.287Z,12.07
2019-04-20T22:51:17.909Z,10.53
2019-04-20T22:53:36.445Z,10.23
2019-04-20T22:56:14.771Z,12.83
2019-04-20T22:58:38.793Z,12.83
2019-04-20T23:00:57.859Z,16.53
2019-04-20T23:03:22.951Z,11.17
2019-04-20T23:05:50.995Z,12.03
2019-04-20T23:08:20.369Z,13.70
2019-04-20T23:10:49.701Z,12.00
2019-04-20T23:13:22.080Z,10.33
2019-04-20T23:15:54.070Z,11.53
2019-04-20T23:18:16.277Z,14.17
2019-04-20T23:20:44.269Z,12.53
2019-04-20T23:23:16.963Z,11.93
2019-04-20T23:25:41.362Z,13.33
2019-04-20T23:28:12.338Z,11.13
2019-04-20T23:30:40.619Z,16.10
2019-04-20T23:33:07.894Z,9.87
2019-04-20T23:35:37.535Z,15.10
2019-04-20T23:38:11.083Z,10.73
2019-04-20T23:40:34.262Z,11.43
2019-04-20T23:43:17.801Z,12.53
2019-04-20T23:45:49.858Z,12.63
2019-04-20T23:48:28.478Z,13.77
2019-04-20T23:51:08.439Z,13.50
2019-04-20T23:53:39.285Z,12.77
2019-04-20T23:55:52.075Z,13.63
2019-04-20T23:58:21.052Z,15.33
